METAR & TAF

RJAH 271500Z 05005KT 9999 FEW012 BKN015 18/16 Q1013
RJAH 271400Z 08005KT 9999 FEW012 BKN015 18/15 Q1013
RJAH 271349Z 08005KT 9999 FEW012 BKN015 18/15 Q1013 RMK 2SC012 7SC015 A2992
RJAH 271300Z 05006KT 9999 FEW015 BKN020 17/15 Q1013
RJAH 271200Z 06004KT 9999 FEW015 BKN020 BKN/// 17/15 Q1014
RJAH 271100Z 09005KT 060V120 9999 FEW020 BKN/// 17/14 Q1013

TAF RJAH 271105Z 2712/2818 04006KT 9999 FEW010 BKN020
  BECMG 2721/2723 20007KT